createdAt,value
2023-11-05T00:02:21.724Z,100.00
2023-11-05T00:07:23.320Z,100.00
2023-11-05T00:12:24.886Z,100.00
2023-11-05T00:17:26.508Z,100.00
2023-11-05T00:22:28.209Z,100.00
2023-11-05T00:27:29.878Z,100.00
2023-11-05T00:32:31.532Z,100.00
2023-11-05T00:37:33.240Z,100.00
2023-11-05T00:42:34.978Z,100.00
2023-11-05T00:47:36.659Z,100.00
2023-11-05T00:52:38.665Z,99.47
2023-11-05T00:57:40.267Z,97.96
2023-11-05T01:02:41.911Z,96.94
2023-11-05T01:07:43.742Z,95.37
2023-11-05T01:12:45.351Z,92.11
2023-11-05T01:17:47.002Z,91.97
2023-11-05T01:22:48.709Z,92.84
2023-11-05T01:27:50.433Z,93.13
2023-11-05T01:32:52.081Z,94.24
2023-11-05T01:37:53.725Z,95.54
2023-11-05T01:42:58.674Z,97.13
2023-11-05T01:48:00.593Z,97.28
2023-11-05T01:53:03.901Z,98.52
2023-11-05T01:58:05.808Z,98.06
2023-11-05T02:03:07.499Z,96.18
2023-11-05T02:08:09.122Z,96.04
2023-11-05T02:13:10.944Z,95.51
2023-11-05T02:18:12.794Z,93.08
2023-11-05T02:23:19.060Z,91.88
2023-11-05T02:28:20.737Z,90.50
2023-11-05T02:33:23.575Z,90.99
2023-11-05T02:38:25.299Z,90.43
2023-11-05T02:43:27.248Z,91.46
2023-11-05T02:48:29.203Z,89.99
2023-11-05T02:53:30.840Z,89.02
2023-11-05T02:58:32.548Z,87.78
2023-11-05T03:03:34.352Z,87.63
2023-11-05T03:08:36.010Z,88.60
2023-11-05T03:14:02.701Z,87.56
2023-11-05T03:19:05.151Z,85.85
2023-11-05T03:24:08.321Z,85.34
2023-11-05T03:29:10.182Z,84.86
2023-11-05T03:34:11.831Z,87.65
2023-11-05T03:39:14.147Z,91.42
2023-11-05T03:44:16.247Z,94.11
2023-11-05T03:49:17.832Z,96.14
2023-11-05T03:54:19.475Z,98.12
2023-11-05T03:59:21.155Z,99.89
2023-11-05T04:04:22.871Z,100.00
2023-11-05T04:09:24.449Z,100.00
2023-11-05T04:14:27.022Z,100.00
2023-11-05T04:19:28.808Z,100.00
2023-11-05T04:24:30.474Z,100.00
2023-11-05T04:29:35.387Z,100.00
2023-11-05T04:34:38.897Z,100.00
2023-11-05T04:39:43.981Z,100.00
2023-11-05T04:44:45.533Z,100.00
2023-11-05T04:49:47.234Z,100.00
2023-11-05T04:54:49.227Z,100.00
2023-11-05T04:59:50.860Z,100.00
2023-11-05T05:04:55.324Z,100.00
2023-11-05T05:09:57.104Z,100.00
2023-11-05T05:14:58.646Z,100.00
2023-11-05T05:20:00.353Z,100.00
2023-11-05T05:25:01.890Z,100.00
2023-11-05T05:30:04.824Z,100.00
2023-11-05T05:35:06.691Z,100.00
2023-11-05T05:40:08.672Z,100.00
2023-11-05T05:45:11.004Z,100.00
2023-11-05T05:50:12.559Z,100.00
2023-11-05T05:55:16.591Z,100.00
2023-11-05T06:00:18.686Z,100.00
2023-11-05T06:05:20.274Z,100.00
2023-11-05T06:10:21.938Z,100.00
2023-11-05T06:15:23.600Z,100.00
2023-11-05T06:20:25.655Z,100.00
2023-11-05T06:25:27.365Z,100.00
2023-11-05T06:30:29.469Z,100.00
2023-11-05T06:35:31.006Z,100.00
2023-11-05T06:40:32.623Z,100.00
2023-11-05T06:45:34.248Z,100.00
2023-11-05T06:50:36.147Z,100.00
2023-11-05T06:55:37.859Z,100.00
2023-11-05T07:00:42.822Z,100.00
2023-11-05T07:05:44.363Z,100.00
2023-11-05T07:10:46.025Z,100.00
2023-11-05T07:15:47.657Z,100.00
2023-11-05T07:20:49.375Z,100.00
2023-11-05T07:25:51.454Z,100.00
2023-11-05T07:30:53.053Z,100.00
2023-11-05T07:35:54.725Z,100.00
2023-11-05T07:40:56.715Z,100.00
2023-11-05T07:45:58.307Z,100.00
2023-11-05T07:50:59.826Z,100.00
2023-11-05T07:56:01.452Z,100.00
2023-11-05T08:01:04.585Z,100.00
2023-11-05T08:06:06.252Z,100.00
2023-11-05T08:11:07.995Z,100.00
2023-11-05T08:16:09.610Z,100.00
2023-11-05T08:21:12.380Z,100.00
2023-11-05T08:26:14.033Z,100.00
2023-11-05T08:31:15.582Z,100.00
2023-11-05T08:36:17.229Z,100.00
2023-11-05T08:41:18.812Z,100.00
2023-11-05T08:46:20.375Z,100.00
2023-11-05T08:51:27.118Z,100.00
2023-11-05T08:56:28.689Z,100.00
2023-11-05T09:01:30.575Z,100.00
2023-11-05T09:06:32.285Z,100.00
2023-11-05T09:11:34.744Z,100.00
2023-11-05T09:16:36.546Z,100.00
2023-11-05T09:21:42.600Z,100.00
2023-11-05T09:26:44.215Z,100.00
2023-11-05T09:31:45.946Z,100.00
2023-11-05T09:36:47.544Z,100.00
2023-11-05T09:41:49.203Z,97.96
2023-11-05T09:51:55.203Z,96.13
2023-11-05T09:56:57.472Z,95.89
2023-11-05T10:01:59.740Z,96.79
2023-11-05T10:07:01.455Z,90.41
2023-11-05T10:12:04.535Z,90.92
2023-11-05T10:17:06.315Z,89.48
2023-11-05T10:22:16.858Z,88.78
2023-11-05T10:27:37.067Z,79.40
2023-11-05T10:32:40.092Z,79.85
2023-11-05T10:37:43.217Z,77.21
2023-11-05T10:42:47.067Z,80.04
2023-11-05T10:47:49.572Z,74.72
2023-11-05T10:52:57.176Z,72.81
2023-11-05T10:58:10.344Z,72.12
2023-11-05T11:03:20.556Z,71.36
2023-11-05T11:08:26.472Z,70.97
2023-11-05T11:13:31.657Z,69.82
2023-11-05T11:18:34.077Z,73.88
2023-11-05T11:23:36.981Z,73.78
2023-11-05T11:28:38.622Z,73.72
2023-11-05T11:33:40.311Z,75.15
2023-11-05T11:38:43.157Z,76.81
2023-11-05T11:43:45.632Z,72.42
2023-11-05T11:48:47.292Z,72.24
2023-11-05T11:53:48.980Z,69.42
2023-11-05T11:58:50.677Z,69.43
2023-11-05T12:03:52.441Z,70.67
2023-11-05T12:08:55.504Z,72.43
2023-11-05T12:13:57.485Z,71.53
2023-11-05T12:18:59.126Z,69.24
2023-11-05T12:24:01.931Z,67.59
2023-11-05T12:29:03.937Z,68.69
2023-11-05T12:34:05.788Z,64.58
2023-11-05T12:39:07.656Z,63.29
2023-11-05T12:44:09.278Z,63.97
2023-11-05T12:49:10.906Z,65.52
2023-11-05T12:54:13.104Z,64.84
2023-11-05T12:59:14.802Z,66.90
2023-11-05T13:04:17.072Z,64.72
2023-11-05T13:09:19.497Z,67.16
2023-11-05T13:14:24.934Z,66.11
2023-11-05T13:19:27.401Z,67.33
2023-11-05T13:24:29.542Z,68.79
2023-11-05T13:29:31.798Z,66.95
2023-11-05T13:34:33.721Z,65.85
2023-11-05T13:39:35.696Z,64.24
2023-11-05T13:44:39.367Z,65.43
2023-11-05T13:49:41.957Z,65.71
2023-11-05T13:54:44.348Z,65.36
2023-11-05T13:59:47.401Z,66.66
2023-11-05T14:04:49.865Z,70.13
2023-11-05T14:09:51.751Z,69.04
2023-11-05T14:14:53.491Z,68.56
2023-11-05T14:19:55.771Z,68.74
2023-11-05T14:24:57.431Z,69.70
2023-11-05T14:29:59.579Z,69.84
2023-11-05T14:35:03.292Z,70.80
2023-11-05T14:40:10.749Z,71.99
2023-11-05T14:45:22.565Z,73.05
2023-11-05T14:50:34.697Z,72.47
2023-11-05T14:55:36.494Z,73.28
2023-11-05T15:00:39.690Z,73.78
2023-11-05T15:05:42.348Z,75.08
2023-11-05T15:10:44.344Z,78.23
2023-11-05T15:15:46.885Z,79.54
2023-11-05T15:20:48.663Z,80.63
2023-11-05T15:25:51.574Z,81.53
2023-11-05T15:30:56.016Z,82.65
2023-11-05T15:35:58.264Z,84.32
2023-11-05T15:41:00.573Z,84.91
2023-11-05T15:46:05.458Z,84.55
2023-11-05T15:51:08.506Z,84.22
2023-11-05T15:56:10.520Z,82.49
2023-11-05T16:01:13.981Z,82.43
2023-11-05T16:06:15.822Z,83.03
2023-11-05T16:11:17.909Z,83.67
2023-11-05T16:16:20.481Z,85.63
2023-11-05T16:21:23.177Z,86.97
2023-11-05T16:26:26.468Z,90.27
2023-11-05T16:31:30.193Z,91.31
2023-11-05T16:36:33.458Z,90.77
2023-11-05T16:41:36.765Z,89.99
2023-11-05T16:46:39.865Z,90.09
2023-11-05T16:51:47.042Z,90.00
2023-11-05T16:56:51.900Z,90.32
2023-11-05T17:01:55.582Z,90.74
2023-11-05T17:06:59.156Z,90.48
2023-11-05T17:12:02.506Z,86.07
2023-11-05T17:17:06.550Z,85.07
2023-11-05T17:22:09.974Z,86.85
2023-11-05T17:27:13.358Z,87.44
2023-11-05T17:32:16.744Z,88.04
2023-11-05T17:37:20.340Z,89.49
2023-11-05T17:42:23.739Z,90.91
2023-11-05T17:47:27.318Z,90.89
2023-11-05T17:52:33.074Z,91.10
2023-11-05T17:57:37.163Z,91.79
2023-11-05T18:02:44.464Z,92.37
2023-11-05T18:07:49.778Z,92.15
2023-11-05T18:12:53.266Z,92.49
2023-11-05T18:17:58.646Z,92.87
2023-11-05T18:23:03.552Z,93.38
2023-11-05T18:28:08.957Z,93.56
2023-11-05T18:33:13.840Z,92.83
2023-11-05T18:38:20.923Z,91.71
2023-11-05T18:43:24.731Z,90.38
2023-11-05T18:48:28.708Z,90.76
2023-11-05T18:53:32.231Z,88.63
2023-11-05T18:58:36.173Z,82.69
2023-11-05T19:03:39.906Z,78.91
2023-11-05T19:08:43.882Z,77.26
2023-11-05T19:13:54.500Z,75.50
2023-11-05T19:19:03.158Z,74.19
2023-11-05T19:24:07.159Z,73.81
2023-11-05T19:29:10.907Z,72.16
2023-11-05T19:34:17.528Z,71.24
2023-11-05T19:39:23.096Z,71.16
2023-11-05T19:44:26.512Z,71.36
2023-11-05T19:49:36.343Z,73.29
2023-11-05T19:54:41.654Z,70.88
2023-11-05T19:59:47.121Z,71.75
2023-11-05T20:04:55.887Z,68.74
2023-11-05T20:10:02.348Z,68.46
2023-11-05T20:15:07.686Z,65.90
2023-11-05T20:20:11.801Z,64.15
2023-11-05T20:25:19.022Z,63.50
2023-11-05T20:30:22.562Z,63.00
2023-11-05T20:35:25.833Z,63.03
2023-11-05T20:40:30.645Z,62.93
2023-11-05T20:45:35.745Z,63.23
2023-11-05T20:50:39.143Z,63.31
2023-11-05T20:55:42.635Z,63.63
2023-11-05T21:00:44.622Z,64.13
2023-11-05T21:05:46.240Z,65.12
2023-11-05T21:10:55.022Z,65.86
2023-11-05T21:15:59.953Z,66.69
2023-11-05T21:21:01.595Z,66.25
2023-11-05T21:26:03.416Z,65.45
2023-11-05T21:31:05.118Z,64.23
2023-11-05T21:36:07.247Z,63.17
2023-11-05T21:41:08.902Z,62.53
2023-11-05T21:46:14.405Z,61.80
2023-11-05T21:51:16.593Z,60.72
2023-11-05T21:56:19.538Z,60.63
2023-11-05T22:01:21.154Z,60.12
2023-11-05T22:06:22.827Z,61.11
2023-11-05T22:11:24.442Z,60.60
2023-11-05T22:16:26.488Z,60.06
2023-11-05T22:21:28.074Z,60.07
2023-11-05T22:26:29.717Z,59.42
2023-11-05T22:31:31.986Z,59.68
2023-11-05T22:36:35.070Z,59.05
2023-11-05T22:41:36.628Z,59.22
2023-11-05T22:46:38.267Z,58.38
2023-11-05T22:51:40.094Z,58.43
2023-11-05T22:56:44.754Z,57.92
2023-11-05T23:01:46.433Z,57.65
2023-11-05T23:06:49.451Z,57.43
2023-11-05T23:11:51.181Z,57.61
2023-11-05T23:16:52.818Z,57.09
2023-11-05T23:21:54.437Z,57.49
2023-11-05T23:26:56.322Z,57.12
2023-11-05T23:31:57.986Z,57.86
2023-11-05T23:36:59.598Z,57.38
2023-11-05T23:42:01.340Z,58.22
2023-11-05T23:47:02.952Z,59.28
2023-11-05T23:52:04.826Z,59.44
2023-11-05T23:57:06.460Z,59.95
